Home > Products > Valid Products > TAF

000
FTPQ31 PGUM 142300
TAFPQ
TAF
PGUM 142320Z 1500/1606 07011KT P6SM VCSH SCT020 SCT040 BKN110=



000
FTPQ31 PGUM 142300
TAFPQ
TAF
PGUM 142320Z 1500/1606 07011KT P6SM VCSH SCT020 SCT040 BKN110=



000
FTPQ31 PGUM 141700
TAFPQ
TAF
PGUM 141727Z 1418/1524 11008KT P6SM VCSH FEW020 SCT040 BKN120
      TEMPO 1418/1421 3SM TSRA SCT017CB BKN030=



000
FTPQ31 PGUM 141700
TAFPQ
TAF
PGUM 141727Z 1418/1524 11008KT P6SM VCSH FEW020 SCT040 BKN120
      TEMPO 1418/1421 3SM TSRA SCT017CB BKN030=



000
FTPQ31 PGUM 141100
TAFPQ
TAF
PGUM 141120Z 1412/1518 12009KT P6SM VCSH FEW018 SCT040 BKN120
      TEMPO 1412/1414 5SM -SHRA SCT017 BKN030=



000
FTPQ31 PGUM 141100
TAFPQ
TAF
PGUM 141120Z 1412/1518 12009KT P6SM VCSH FEW018 SCT040 BKN120
      TEMPO 1412/1414 5SM -SHRA SCT017 BKN030=



000
FTPQ31 PGUM 140500 RRA
TAFPQ
TAF
PGUM 140548Z 1406/1512 12009KT P6SM VCSH FEW018 SCT050 BKN120=



000
FTPQ31 PGUM 140500 RRA
TAFPQ
TAF
PGUM 140548Z 1406/1512 12009KT P6SM VCSH FEW018 SCT050 BKN120=



000
FTPQ31 PGUM 140200 AAC
TAFPQ
TAF AMD
PGUM 140207Z 1402/1506 07010KT P6SM VCSH FEW018 SCT050 BKN120
      TEMPO 1402/1404 07012G22KT 2SM +SHRA BKN012 OVC025=



000
FTPQ31 PGUM 140200 AAC
TAFPQ
TAF AMD
PGUM 140207Z 1402/1506 07010KT P6SM VCSH FEW018 SCT050 BKN120
      TEMPO 1402/1404 07012G22KT 2SM +SHRA BKN012 OVC025=



000
FTPQ31 PGUM 140200 AAB
TAFPQ
TAF AMD
PGUM 140203Z 1402/1506 07010KT P6SM VCSH FEW018 SCT050 BKN120
      TEMPO 1402/1404 07012G22KT 4SM SHRA SCT014 BKN025=



000
FTPQ31 PGUM 140200 AAB
TAFPQ
TAF AMD
PGUM 140203Z 1402/1506 07010KT P6SM VCSH FEW018 SCT050 BKN120
      TEMPO 1402/1404 07012G22KT 4SM SHRA SCT014 BKN025=



000
FTPQ31 PGUM 132300
TAFPQ
TAF
PGUM 132333Z 1400/1506 07010KT P6SM VCSH FEW018 SCT050 BKN120=



000
FTPQ31 PGUM 132300
TAFPQ
TAF
PGUM 132333Z 1400/1506 07010KT P6SM VCSH FEW018 SCT050 BKN120=



000
FTPQ31 PGUM 131700
TAFPQ
TAF
PGUM 131720Z 1318/1424 03009KT P6SM VCSH SCT020 BKN110
      TEMPO 1318/1319 VRB10G20KT 4SM TSRA SCT016CB BKN025=



000
FTPQ31 PGUM 131700
TAFPQ
TAF
PGUM 131720Z 1318/1424 03009KT P6SM VCSH SCT020 BKN110
      TEMPO 1318/1319 VRB10G20KT 4SM TSRA SCT016CB BKN025=



000
FTPQ31 PGUM 131600 AAA
TAFPQ
TAF AMD
PGUM 131629Z 1316/1418 03009KT P6SM VCSH SCT020 BKN120
      TEMPO 1316/1319 VRB10G20KT 3SM TSRA SCT016CB BKN025=



000
FTPQ31 PGUM 131600 AAA
TAFPQ
TAF AMD
PGUM 131629Z 1316/1418 03009KT P6SM VCSH SCT020 BKN120
      TEMPO 1316/1319 VRB10G20KT 3SM TSRA SCT016CB BKN025=



000
FTPQ31 PGUM 131100
TAFPQ
TAF
PGUM 131120Z 1312/1418 04009KT P6SM VCSH SCT020 BKN120
      TEMPO 1312/1314 VRB10G20KT 3SM TSRA SCT016CB BKN025=



000
FTPQ31 PGUM 131100
TAFPQ
TAF
PGUM 131120Z 1312/1418 04009KT P6SM VCSH SCT020 BKN120
      TEMPO 1312/1314 VRB10G20KT 3SM TSRA SCT016CB BKN025=



000
FTPQ31 PGUM 131000 AAA
TAFPQ
TAF AMD
PGUM 131011Z 1310/1412 03009KT P6SM VCSH SCT020 BKN120
      TEMPO 1310/1313 VRB10KT 3SM TSRA SCT016CB BKN030=



000
FTPQ31 PGUM 131000 AAA
TAFPQ
TAF AMD
PGUM 131011Z 1310/1412 03009KT P6SM VCSH SCT020 BKN120
      TEMPO 1310/1313 VRB10KT 3SM TSRA SCT016CB BKN030=



000
FTPQ31 PGUM 130500
TAFPQ
TAF
PGUM 130522Z 1306/1412 03009KT P6SM VCSH SCT020 BKN120=



000
FTPQ31 PGUM 122300
TAFPQ
TAF
PGUM 122320Z 1300/1406 13007KT P6SM VCSH SCT020 SCT120=



000
FTPQ31 PGUM 122300
TAFPQ
TAF
PGUM 122320Z 1300/1406 13007KT P6SM VCSH SCT020 SCT120=



000
FTPQ31 PGUM 121700
TAFPQ
TAF
PGUM 121720Z 1218/1324 VRB04KT P6SM VCSH FEW020 BKN120
      TEMPO 1218/1221 VRB10KT 2SM TSRA SCT016CB BKN025=



000
FTPQ31 PGUM 121700
TAFPQ
TAF
PGUM 121720Z 1218/1324 VRB04KT P6SM VCSH FEW020 BKN120
      TEMPO 1218/1221 VRB10KT 2SM TSRA SCT016CB BKN025=



000
FTPQ31 PGUM 121100
TAFPQ
TAF
PGUM 121120Z 1212/1318 VRB05KT P6SM VCSH FEW020 SCT120=



000
FTPQ31 PGUM 121100
TAFPQ
TAF
PGUM 121120Z 1212/1318 VRB05KT P6SM VCSH FEW020 SCT120=



000
FTPQ31 PGUM 120500
TAFPQ
TAF
PGUM 120520Z 1206/1312 15007KT P6SM VCSH SCT020 SCT120
     FM120900 VRB05KT P6SM VCSH SCT018 SCT120=



    US Dept of Commerce
    National Oceanic and Atmospheric Administration
    National Weather Service
    1325 East West Highway
    Silver Spring, MD 20910
    Page Author: NWS Internet Services Team
Disclaimer
Information Quality
Credits
Glossary
Privacy Policy
Freedom of Information Act (FOIA)
About Us
Career Opportunities